createdAt,value
2017-06-01T00:02:24.022Z,57.90
2017-06-01T00:04:52.878Z,57.80
2017-06-01T00:07:21.766Z,58.30
2017-06-01T00:09:50.603Z,58.50
2017-06-01T00:12:19.472Z,58.00
2017-06-01T00:14:48.350Z,57.90
2017-06-01T00:17:17.227Z,57.70
2017-06-01T00:19:46.085Z,57.90
2017-06-01T00:22:14.318Z,57.70
2017-06-01T00:24:43.171Z,57.90
2017-06-01T00:27:12.016Z,57.70
2017-06-01T00:29:40.916Z,57.70
2017-06-01T00:32:09.781Z,57.60
2017-06-01T00:34:38.636Z,57.60
2017-06-01T00:37:07.554Z,57.60
2017-06-01T00:39:36.405Z,57.90
2017-06-01T00:42:04.487Z,57.90
2017-06-01T00:44:33.379Z,58.00
2017-06-01T00:47:02.219Z,58.10
2017-06-01T00:49:31.118Z,58.20
2017-06-01T00:51:59.988Z,58.10
2017-06-01T00:54:28.844Z,57.80
2017-06-01T00:56:57.868Z,57.90
2017-06-01T00:59:25.966Z,57.90
2017-06-01T01:01:54.806Z,58.00
2017-06-01T01:04:23.693Z,58.20
2017-06-01T01:06:52.546Z,58.20
2017-06-01T01:09:21.401Z,58.40
2017-06-01T01:11:50.301Z,58.40
2017-06-01T01:14:19.142Z,58.80
2017-06-01T01:16:48.013Z,58.70
2017-06-01T01:19:17.009Z,58.80
2017-06-01T01:21:45.096Z,58.80
2017-06-01T01:24:13.954Z,58.90
2017-06-01T01:26:42.867Z,59.00
2017-06-01T01:29:10.945Z,59.00
2017-06-01T01:31:39.812Z,59.00
2017-06-01T01:34:08.701Z,59.00
2017-06-01T01:36:37.552Z,58.80
2017-06-01T01:39:13.567Z,59.40
2017-06-01T01:41:43.694Z,59.30
2017-06-01T01:44:11.778Z,59.20
2017-06-01T01:46:43.122Z,59.10
2017-06-01T01:49:11.981Z,59.30
2017-06-01T01:51:40.073Z,58.80
2017-06-01T01:54:08.957Z,59.20
2017-06-01T01:56:37.812Z,60.10
2017-06-01T01:59:06.705Z,59.30
2017-06-01T02:01:35.560Z,59.30
2017-06-01T02:04:04.418Z,59.50
2017-06-01T02:06:33.413Z,59.70
2017-06-01T02:09:02.281Z,59.60
2017-06-01T02:11:30.389Z,59.60
2017-06-01T02:13:59.277Z,59.60
2017-06-01T02:16:28.173Z,59.70
2017-06-01T02:18:57.176Z,59.70
2017-06-01T02:21:26.038Z,59.70
2017-06-01T02:23:54.892Z,60.10
2017-06-01T02:26:23.777Z,60.10
2017-06-01T02:28:52.650Z,60.70
2017-06-01T02:31:21.541Z,60.50
2017-06-01T02:33:50.447Z,60.30
2017-06-01T02:36:19.326Z,60.10
2017-06-01T02:38:48.348Z,60.10
2017-06-01T02:41:17.237Z,60.20
2017-06-01T02:43:46.090Z,60.30
2017-06-01T02:46:15.045Z,61.20
2017-06-01T02:48:43.905Z,60.20
2017-06-01T02:51:12.766Z,60.30
2017-06-01T02:53:41.661Z,60.40
2017-06-01T02:56:10.535Z,60.30
2017-06-01T02:58:39.388Z,60.20
2017-06-01T03:01:08.277Z,60.30
2017-06-01T03:03:37.133Z,60.40
2017-06-01T03:06:06.134Z,60.40
2017-06-01T03:08:35.002Z,60.80
2017-06-01T03:11:03.864Z,60.90
2017-06-01T03:13:32.773Z,61.40
2017-06-01T03:16:01.658Z,61.20
2017-06-01T03:18:30.530Z,61.20
2017-06-01T03:20:59.427Z,61.30
2017-06-01T03:23:28.285Z,61.30
2017-06-01T03:25:57.148Z,61.40
2017-06-01T03:28:29.642Z,61.50
2017-06-01T03:30:58.496Z,61.70
2017-06-01T03:33:28.652Z,61.80
2017-06-01T03:35:57.516Z,61.90
2017-06-01T03:38:26.377Z,61.80
2017-06-01T03:40:56.460Z,62.00
2017-06-01T03:43:25.316Z,61.80
2017-06-01T03:45:54.337Z,62.10
2017-06-01T03:48:23.203Z,62.00
2017-06-01T03:50:52.071Z,62.20
2017-06-01T03:53:20.965Z,62.60
2017-06-01T03:55:49.056Z,62.50
2017-06-01T03:58:17.913Z,62.70
2017-06-01T04:00:46.806Z,62.50
2017-06-01T04:03:15.672Z,62.60
2017-06-01T04:05:44.533Z,62.80
2017-06-01T04:08:13.554Z,62.70
2017-06-01T04:10:42.416Z,62.70
2017-06-01T04:13:10.500Z,62.70
2017-06-01T04:15:39.398Z,62.70
2017-06-01T04:18:08.256Z,62.60
2017-06-01T04:20:37.121Z,63.00
2017-06-01T04:23:06.014Z,63.40
2017-06-01T04:25:34.886Z,63.60
2017-06-01T04:28:05.582Z,63.40
2017-06-01T04:30:34.449Z,63.30
2017-06-01T04:33:03.313Z,63.50
2017-06-01T04:35:32.221Z,63.90
2017-06-01T04:38:01.078Z,63.60
2017-06-01T04:40:29.945Z,63.90
2017-06-01T04:42:58.962Z,63.90
2017-06-01T04:45:27.833Z,63.80
2017-06-01T04:47:56.724Z,64.10
2017-06-01T04:50:25.589Z,64.10
2017-06-01T04:52:54.437Z,64.10
2017-06-01T04:55:23.325Z,63.80
2017-06-01T04:57:52.198Z,63.90
2017-06-01T05:00:22.843Z,63.80
2017-06-01T05:02:51.689Z,63.60
2017-06-01T05:05:20.565Z,63.30
2017-06-01T05:07:51.781Z,63.80
2017-06-01T05:10:20.635Z,63.40
2017-06-01T05:12:49.507Z,63.10
2017-06-01T05:15:18.405Z,63.30
2017-06-01T05:17:48.961Z,63.10
2017-06-01T05:20:17.825Z,62.30
2017-06-01T05:22:48.395Z,62.10
2017-06-01T05:25:17.300Z,62.10
2017-06-01T05:27:46.177Z,62.00
2017-06-01T05:30:15.057Z,61.80
2017-06-01T05:32:43.957Z,61.60
2017-06-01T05:35:12.818Z,61.70
2017-06-01T05:37:41.682Z,61.50
2017-06-01T05:40:10.674Z,61.70
2017-06-01T05:42:39.533Z,60.90
2017-06-01T05:45:08.393Z,60.90
2017-06-01T05:47:37.326Z,61.20
2017-06-01T05:50:06.174Z,60.40
2017-06-01T05:52:35.024Z,61.40
2017-06-01T05:55:03.926Z,60.70
2017-06-01T05:57:32.792Z,60.80
2017-06-01T06:00:01.650Z,61.20
2017-06-01T06:02:30.639Z,60.60
2017-06-01T06:04:59.503Z,59.90
2017-06-01T06:07:28.395Z,59.60
2017-06-01T06:09:57.252Z,59.80
2017-06-01T06:12:26.113Z,59.90
2017-06-01T06:14:55.117Z,59.30
2017-06-01T06:17:24.008Z,59.10
2017-06-01T06:19:52.864Z,60.00
2017-06-01T06:22:21.757Z,60.70
2017-06-01T06:24:50.628Z,59.60
2017-06-01T06:27:19.517Z,58.90
2017-06-01T06:29:48.371Z,59.60
2017-06-01T06:32:17.220Z,60.00
2017-06-01T06:34:46.121Z,59.10
2017-06-01T06:37:14.988Z,59.80
2017-06-01T06:39:43.838Z,59.90
2017-06-01T06:42:19.297Z,59.70
2017-06-01T06:44:47.389Z,59.70
2017-06-01T06:47:16.251Z,59.80
2017-06-01T06:49:45.257Z,60.70
2017-06-01T06:52:14.132Z,61.00
2017-06-01T06:54:42.995Z,59.80
2017-06-01T06:57:11.882Z,59.10
2017-06-01T06:59:40.749Z,59.30
2017-06-01T07:02:09.593Z,59.60
2017-06-01T07:04:38.507Z,59.00
2017-06-01T07:07:07.383Z,59.00
2017-06-01T07:09:36.304Z,57.70
2017-06-01T07:12:05.152Z,59.10
2017-06-01T07:14:34.016Z,58.40
2017-06-01T07:17:03.641Z,57.30
2017-06-01T07:19:32.506Z,59.10
2017-06-01T07:22:01.369Z,57.40
2017-06-01T07:24:30.381Z,57.30
2017-06-01T07:26:59.252Z,57.50
2017-06-01T07:29:28.118Z,57.40
2017-06-01T07:31:57.040Z,56.30
2017-06-01T07:34:25.900Z,57.30
2017-06-01T07:36:54.769Z,55.70
2017-06-01T07:39:23.749Z,55.70
2017-06-01T07:41:52.602Z,55.10
2017-06-01T07:44:21.461Z,55.50
2017-06-01T07:46:49.597Z,55.50
2017-06-01T07:49:18.466Z,53.90
2017-06-01T07:51:48.533Z,54.20
2017-06-01T07:54:18.225Z,56.50
2017-06-01T07:56:47.404Z,55.70
2017-06-01T07:59:16.265Z,56.80
2017-06-01T08:01:45.165Z,56.70
2017-06-01T08:04:13.257Z,56.70
2017-06-01T08:06:42.113Z,55.50
2017-06-01T08:09:11.834Z,53.50
2017-06-01T08:11:40.693Z,55.10
2017-06-01T08:14:10.870Z,54.50
2017-06-01T08:16:39.737Z,53.80
2017-06-01T08:19:08.617Z,54.50
2017-06-01T08:21:37.522Z,52.80
2017-06-01T08:24:06.391Z,51.40
2017-06-01T08:26:35.253Z,53.20
2017-06-01T08:29:11.397Z,53.00
2017-06-01T08:31:40.252Z,53.20
2017-06-01T08:34:09.097Z,53.80
2017-06-01T08:36:37.998Z,50.70
2017-06-01T08:39:06.853Z,52.00
2017-06-01T08:41:35.691Z,49.00
2017-06-01T08:44:04.584Z,50.90
2017-06-01T08:46:33.431Z,50.80
2017-06-01T08:49:02.273Z,51.90
2017-06-01T08:51:31.194Z,52.10
2017-06-01T08:54:00.053Z,51.20
2017-06-01T08:56:28.917Z,50.70
2017-06-01T08:58:58.638Z,49.90
2017-06-01T09:01:27.488Z,49.40
2017-06-01T09:03:56.340Z,51.20
2017-06-01T09:06:25.290Z,49.80
2017-06-01T09:08:54.144Z,47.70
2017-06-01T09:11:23.004Z,48.90
2017-06-01T09:13:51.909Z,50.00
2017-06-01T09:16:21.556Z,50.90
2017-06-01T09:18:50.414Z,50.40
2017-06-01T09:21:18.535Z,50.50
2017-06-01T09:23:47.553Z,50.40
2017-06-01T09:26:16.400Z,49.50
2017-06-01T09:28:44.482Z,49.40
2017-06-01T09:31:13.365Z,49.50
2017-06-01T09:33:42.221Z,47.50
2017-06-01T09:36:11.069Z,46.30
2017-06-01T09:38:43.625Z,45.50
2017-06-01T09:41:12.465Z,44.90
2017-06-01T09:43:41.333Z,44.70
2017-06-01T09:46:10.177Z,44.10
2017-06-01T09:48:39.061Z,45.10
2017-06-01T09:51:07.905Z,45.50
2017-06-01T09:53:36.743Z,43.40
2017-06-01T09:56:05.660Z,42.60
2017-06-01T09:58:34.493Z,41.70
2017-06-01T10:01:03.359Z,44.10
2017-06-01T10:03:32.240Z,43.40
2017-06-01T10:06:01.076Z,43.40
2017-06-01T10:08:29.917Z,43.50
2017-06-01T10:10:58.797Z,41.80
2017-06-01T10:13:27.637Z,42.30
2017-06-01T10:15:56.545Z,42.50
2017-06-01T10:18:26.744Z,42.50
2017-06-01T10:20:55.593Z,42.50
2017-06-01T10:23:25.690Z,41.90
2017-06-01T10:25:54.537Z,41.10
2017-06-01T10:28:23.389Z,39.80
2017-06-01T10:30:52.277Z,42.90
2017-06-01T10:33:21.129Z,41.80
2017-06-01T10:35:53.633Z,40.70
2017-06-01T10:38:22.490Z,41.20
2017-06-01T10:40:51.328Z,39.20
2017-06-01T10:43:20.202Z,40.00
2017-06-01T10:45:48.288Z,40.10
2017-06-01T10:48:17.174Z,40.80
2017-06-01T10:50:46.029Z,41.80
2017-06-01T10:53:14.890Z,39.70
2017-06-01T10:55:43.890Z,40.50
2017-06-01T10:58:12.748Z,39.50
2017-06-01T11:00:41.601Z,39.70
2017-06-01T11:03:10.489Z,41.70
2017-06-01T11:05:39.342Z,40.10
2017-06-01T11:08:08.221Z,40.80
2017-06-01T11:10:37.116Z,41.30
2017-06-01T11:13:05.974Z,39.40
2017-06-01T11:15:34.815Z,42.20
2017-06-01T11:18:05.863Z,39.60
2017-06-01T11:20:34.718Z,40.20
2017-06-01T11:23:03.589Z,39.30
2017-06-01T11:25:32.484Z,38.50
2017-06-01T11:28:01.325Z,38.20
2017-06-01T11:30:37.650Z,39.50
2017-06-01T11:33:06.617Z,39.80
2017-06-01T11:35:35.492Z,39.10
2017-06-01T11:38:04.389Z,38.10
2017-06-01T11:40:33.248Z,38.50
2017-06-01T11:43:02.148Z,38.90
2017-06-01T11:45:31.037Z,39.40
2017-06-01T11:47:59.883Z,38.10
2017-06-01T11:50:28.752Z,36.90
2017-06-01T11:52:57.665Z,38.00
2017-06-01T11:55:26.520Z,38.30
2017-06-01T11:57:55.414Z,39.10
2017-06-01T12:00:24.266Z,40.90
2017-06-01T12:02:53.114Z,39.00
2017-06-01T12:05:22.001Z,37.20
2017-06-01T12:07:50.864Z,38.10
2017-06-01T12:10:19.730Z,39.90
2017-06-01T12:12:50.338Z,39.00
2017-06-01T12:15:20.926Z,40.30
2017-06-01T12:17:52.689Z,37.50
2017-06-01T12:20:21.550Z,37.50
2017-06-01T12:22:49.670Z,37.50
2017-06-01T12:25:18.514Z,38.10
2017-06-01T12:27:47.366Z,35.90
2017-06-01T12:30:16.285Z,38.30
2017-06-01T12:32:45.133Z,36.00
2017-06-01T12:35:13.982Z,36.90
2017-06-01T12:37:42.874Z,34.20
2017-06-01T12:40:11.718Z,35.20
2017-06-01T12:42:40.576Z,34.30
2017-06-01T12:45:16.832Z,33.90
2017-06-01T12:47:45.773Z,34.80
2017-06-01T12:50:14.665Z,35.00
2017-06-01T12:52:43.518Z,33.50
2017-06-01T12:55:12.385Z,34.70
2017-06-01T12:57:41.249Z,34.10
2017-06-01T13:00:10.119Z,33.20
2017-06-01T13:02:46.909Z,31.40
2017-06-01T13:05:23.558Z,31.80
2017-06-01T13:07:52.525Z,34.50
2017-06-01T13:10:21.390Z,32.60
2017-06-01T13:12:50.234Z,32.60
2017-06-01T13:15:20.357Z,32.00
2017-06-01T13:18:04.571Z,31.80
2017-06-01T13:20:33.478Z,32.10
2017-06-01T13:23:02.333Z,31.50
2017-06-01T13:25:31.181Z,32.00
2017-06-01T13:28:00.085Z,31.60
2017-06-01T13:30:28.982Z,32.00
2017-06-01T13:32:57.842Z,32.80
2017-06-01T13:35:26.866Z,30.40
2017-06-01T13:37:55.729Z,30.00
2017-06-01T13:40:24.606Z,30.00
2017-06-01T13:42:53.509Z,31.30
2017-06-01T13:45:22.355Z,31.10
2017-06-01T13:47:51.211Z,30.60
2017-06-01T13:50:20.268Z,30.80
2017-06-01T13:52:49.121Z,30.60
2017-06-01T13:55:25.216Z,32.70
2017-06-01T13:57:54.202Z,30.40
2017-06-01T14:00:23.055Z,29.60
2017-06-01T14:02:51.983Z,30.80
2017-06-01T14:05:20.832Z,29.70
2017-06-01T14:07:49.721Z,29.80
2017-06-01T14:10:18.602Z,29.90
2017-06-01T14:12:47.483Z,30.40
2017-06-01T14:15:23.736Z,29.40
2017-06-01T14:17:55.999Z,30.60
2017-06-01T14:20:26.196Z,31.60
2017-06-01T14:22:55.061Z,31.60
2017-06-01T14:25:23.939Z,29.50
2017-06-01T14:27:52.799Z,30.90
2017-06-01T14:30:21.721Z,30.30
2017-06-01T14:32:50.582Z,29.70
2017-06-01T14:35:19.440Z,29.60
2017-06-01T14:37:48.469Z,29.80
2017-06-01T14:40:17.327Z,29.80
2017-06-01T14:42:46.182Z,29.40
2017-06-01T14:45:15.190Z,29.70
2017-06-01T14:47:44.050Z,30.60
2017-06-01T14:50:12.913Z,28.50
2017-06-01T14:52:41.795Z,27.50
2017-06-01T14:55:10.684Z,28.70
2017-06-01T14:57:39.582Z,27.70
2017-06-01T15:00:08.503Z,28.20
2017-06-01T15:02:37.354Z,28.50
2017-06-01T15:05:06.207Z,28.70
2017-06-01T15:07:36.972Z,28.20
2017-06-01T15:10:05.833Z,28.60
2017-06-01T15:12:34.694Z,28.00
2017-06-01T15:15:03.598Z,29.90
2017-06-01T15:17:32.478Z,28.30
2017-06-01T15:20:01.413Z,28.40
2017-06-01T15:22:30.269Z,30.20
2017-06-01T15:24:59.139Z,30.20
2017-06-01T15:27:28.714Z,30.80
2017-06-01T15:29:57.595Z,29.60
2017-06-01T15:32:26.450Z,30.10
2017-06-01T15:34:55.349Z,31.70
2017-06-01T15:37:24.244Z,29.30
2017-06-01T15:39:53.116Z,30.50
2017-06-01T15:42:22.368Z,30.80
2017-06-01T15:44:51.231Z,31.40
2017-06-01T15:47:20.095Z,29.90
2017-06-01T15:49:49.922Z,29.50
2017-06-01T15:52:18.772Z,31.50
2017-06-01T15:54:47.643Z,30.40
2017-06-01T15:57:16.601Z,30.90
2017-06-01T15:59:45.407Z,31.20
2017-06-01T16:02:14.321Z,30.50
2017-06-01T16:04:43.194Z,31.10
2017-06-01T16:07:12.058Z,30.30
2017-06-01T16:09:41.060Z,30.90
2017-06-01T16:12:09.936Z,31.40
2017-06-01T16:14:38.846Z,30.60
2017-06-01T16:17:07.023Z,31.20
2017-06-01T16:19:35.895Z,30.30
2017-06-01T16:22:04.811Z,31.00
2017-06-01T16:24:33.691Z,30.70
2017-06-01T16:27:02.554Z,30.90
2017-06-01T16:29:38.482Z,31.70
2017-06-01T16:32:14.905Z,31.80
2017-06-01T16:34:51.818Z,30.10
2017-06-01T16:37:20.773Z,31.30
2017-06-01T16:39:49.658Z,30.90
2017-06-01T16:42:18.590Z,31.70
2017-06-01T16:44:47.461Z,32.20
2017-06-01T16:47:16.347Z,32.30
2017-06-01T16:49:52.494Z,31.80
2017-06-01T16:52:21.465Z,29.70
2017-06-01T16:54:50.350Z,31.40
2017-06-01T16:57:19.233Z,30.10
2017-06-01T16:59:48.173Z,30.80
2017-06-01T17:02:17.078Z,30.80
2017-06-01T17:04:46.016Z,31.10
2017-06-01T17:07:14.962Z,31.50
2017-06-01T17:09:43.836Z,31.40
2017-06-01T17:12:12.714Z,31.00
2017-06-01T17:14:41.590Z,32.40
2017-06-01T17:17:26.108Z,32.40
2017-06-01T17:20:02.962Z,32.40
2017-06-01T17:22:39.573Z,32.60
2017-06-01T17:25:08.550Z,31.70
2017-06-01T17:27:37.409Z,32.40
2017-06-01T17:30:06.289Z,33.40
2017-06-01T17:32:35.171Z,33.30
2017-06-01T17:35:04.019Z,33.50
2017-06-01T17:37:32.954Z,32.60
2017-06-01T17:40:01.885Z,33.10
2017-06-01T17:42:30.739Z,34.20
2017-06-01T17:44:59.628Z,33.50
2017-06-01T17:47:28.538Z,34.00
2017-06-01T17:49:57.415Z,34.00
2017-06-01T17:52:26.298Z,34.20
2017-06-01T17:54:55.162Z,33.80
2017-06-01T17:57:27.613Z,34.50
2017-06-01T17:59:56.498Z,34.30
2017-06-01T18:02:25.380Z,35.00
2017-06-01T18:04:55.540Z,34.90
2017-06-01T18:07:24.406Z,35.00
2017-06-01T18:09:54.546Z,35.60
2017-06-01T18:12:23.446Z,36.00
2017-06-01T18:14:52.318Z,36.70
2017-06-01T18:17:28.750Z,36.10
2017-06-01T18:20:05.376Z,36.20
2017-06-01T18:22:33.594Z,36.10
2017-06-01T18:25:02.455Z,36.40
2017-06-01T18:27:31.323Z,37.60
2017-06-01T18:30:00.224Z,37.50
2017-06-01T18:32:29.090Z,37.60
2017-06-01T18:35:05.964Z,36.40
2017-06-01T18:37:42.163Z,37.20
2017-06-01T18:40:11.153Z,37.70
2017-06-01T18:42:40.037Z,38.20
2017-06-01T18:45:08.916Z,37.60
2017-06-01T18:47:37.828Z,38.10
2017-06-01T18:50:06.702Z,38.30
2017-06-01T18:52:35.570Z,38.30
2017-06-01T18:55:11.595Z,39.30
2017-06-01T18:57:47.580Z,39.40
2017-06-01T19:00:16.550Z,39.60
2017-06-01T19:02:45.409Z,39.80
2017-06-01T19:05:14.268Z,40.10
2017-06-01T19:07:43.161Z,40.10
2017-06-01T19:10:12.048Z,40.80
2017-06-01T19:12:40.930Z,40.60
2017-06-01T19:15:16.989Z,40.60
2017-06-01T19:17:53.523Z,41.00
2017-06-01T19:20:22.535Z,41.20
2017-06-01T19:22:51.388Z,41.40
2017-06-01T19:25:20.254Z,41.60
2017-06-01T19:27:49.125Z,41.50
2017-06-01T19:30:26.032Z,41.20
2017-06-01T19:33:02.693Z,41.60
2017-06-01T19:35:39.202Z,42.10
2017-06-01T19:38:08.169Z,41.90
2017-06-01T19:40:37.055Z,41.60
2017-06-01T19:43:05.948Z,41.80
2017-06-01T19:45:34.869Z,41.90
2017-06-01T19:48:03.740Z,42.00
2017-06-01T19:50:32.597Z,42.00
2017-06-01T19:53:01.495Z,42.00
2017-06-01T19:55:30.358Z,42.20
2017-06-01T19:57:59.256Z,42.50
2017-06-01T20:00:28.149Z,42.60
2017-06-01T20:02:56.981Z,43.10
2017-06-01T20:05:25.855Z,42.60
2017-06-01T20:07:55.785Z,42.70
2017-06-01T20:10:24.630Z,42.50
2017-06-01T20:12:53.517Z,42.80
2017-06-01T20:15:22.381Z,42.90
2017-06-01T20:17:51.256Z,43.00
2017-06-01T20:20:20.138Z,43.30
2017-06-01T20:22:49.007Z,44.40
2017-06-01T20:25:17.864Z,43.60
2017-06-01T20:27:53.874Z,43.90
2017-06-01T20:30:22.875Z,43.70
2017-06-01T20:32:51.728Z,43.70
2017-06-01T20:35:20.637Z,44.00
2017-06-01T20:37:49.500Z,44.00
2017-06-01T20:40:18.372Z,44.00
2017-06-01T20:42:55.186Z,44.10
2017-06-01T20:45:24.086Z,44.00
2017-06-01T20:47:52.977Z,44.00
2017-06-01T20:50:21.847Z,44.20
2017-06-01T20:52:50.707Z,44.20
2017-06-01T20:55:19.579Z,44.30
2017-06-01T20:57:48.460Z,44.30
2017-06-01T21:00:19.083Z,44.10
2017-06-01T21:02:47.931Z,44.00
2017-06-01T21:05:16.793Z,44.30
2017-06-01T21:07:45.681Z,44.30
2017-06-01T21:10:14.541Z,44.50
2017-06-01T21:12:43.389Z,44.40
2017-06-01T21:15:12.285Z,44.40
2017-06-01T21:17:44.829Z,44.60
2017-06-01T21:20:13.699Z,44.90
2017-06-01T21:22:42.566Z,44.80
2017-06-01T21:25:11.462Z,44.70
2017-06-01T21:27:40.319Z,44.90
2017-06-01T21:30:09.200Z,44.70
2017-06-01T21:32:38.119Z,44.90
2017-06-01T21:35:06.962Z,44.80
2017-06-01T21:37:35.813Z,44.90
2017-06-01T21:40:04.708Z,45.10
2017-06-01T21:42:33.560Z,45.00
2017-06-01T21:45:02.451Z,45.50
2017-06-01T21:47:31.369Z,46.00
2017-06-01T21:50:00.202Z,45.80
2017-06-01T21:52:29.066Z,45.90
2017-06-01T21:54:58.062Z,46.00
2017-06-01T21:57:26.944Z,45.80
2017-06-01T21:59:55.808Z,45.80
2017-06-01T22:02:24.712Z,46.60
2017-06-01T22:04:53.555Z,46.20
2017-06-01T22:07:22.432Z,46.10
2017-06-01T22:09:51.318Z,46.00
2017-06-01T22:12:20.309Z,46.20
2017-06-01T22:14:49.161Z,46.20
2017-06-01T22:17:18.040Z,46.40
2017-06-01T22:19:46.937Z,46.50
2017-06-01T22:22:15.789Z,46.40
2017-06-01T22:24:44.653Z,46.40
2017-06-01T22:27:15.225Z,46.60
2017-06-01T22:29:44.086Z,46.40
2017-06-01T22:32:14.186Z,46.60
2017-06-01T22:34:43.107Z,46.50
2017-06-01T22:37:11.966Z,47.00
2017-06-01T22:39:40.800Z,47.10
2017-06-01T22:42:09.680Z,46.60
2017-06-01T22:44:38.532Z,46.80
2017-06-01T22:47:07.436Z,47.00
2017-06-01T22:49:36.292Z,47.00
2017-06-01T22:52:05.165Z,46.90
2017-06-01T22:54:37.639Z,46.90
2017-06-01T22:57:06.509Z,47.20
2017-06-01T22:59:35.398Z,47.50
2017-06-01T23:02:03.505Z,47.40
2017-06-01T23:04:32.362Z,47.90
2017-06-01T23:07:01.245Z,48.10
2017-06-01T23:09:30.114Z,48.30
2017-06-01T23:11:58.964Z,48.30
2017-06-01T23:14:28.000Z,48.10
2017-06-01T23:17:07.718Z,48.30
2017-06-01T23:19:36.645Z,48.30
2017-06-01T23:22:05.492Z,48.10
2017-06-01T23:24:34.352Z,48.50
2017-06-01T23:27:03.232Z,48.70
2017-06-01T23:29:32.093Z,48.80
2017-06-01T23:32:00.940Z,49.00
2017-06-01T23:34:29.847Z,49.20
2017-06-01T23:36:58.705Z,49.00
2017-06-01T23:39:27.570Z,49.00
2017-06-01T23:41:57.361Z,49.10
2017-06-01T23:44:26.212Z,49.20
2017-06-01T23:46:55.077Z,49.40
2017-06-01T23:49:23.955Z,49.90
2017-06-01T23:51:52.042Z,49.20
2017-06-01T23:54:21.750Z,49.40
2017-06-01T23:56:49.844Z,49.30
2017-06-01T23:59:18.706Z,50.40
